Time;durP1;ratioP1;P1;durP2;ratioP2;P2;SDS_P1;SDS_P2;PMS_P1;PMS_P2;Temp;Humidity;BMP_temperature;BMP_pressure;BME280_temperature;BME280_humidity;BME280_pressure;Samples;Min_cycle;Max_cycle;Signal;HPM_P1;HPM_P2
2021/04/20 00:01:42;;;;;;;121.53;56.60;;;7.80;99.90;;;;;;5093737;28;20663;-78
2021/04/20 00:04:08;;;;;;;124.00;54.63;;;7.80;99.90;;;;;;5093576;28;20274;-78
2021/04/20 00:06:35;;;;;;;113.80;54.57;;;7.80;99.90;;;;;;5093012;28;20239;-77
2021/04/20 00:09:04;;;;;;;115.83;53.63;;;7.80;99.90;;;;;;5093246;28;20199;-78
2021/04/20 00:11:30;;;;;;;133.50;57.00;;;7.70;99.90;;;;;;5093678;28;20712;-77
2021/04/20 00:13:58;;;;;;;123.23;55.00;;;7.70;99.90;;;;;;5093693;28;20533;-77
2021/04/20 00:16:24;;;;;;;132.20;57.27;;;7.70;99.90;;;;;;5093553;28;20288;-77
2021/04/20 00:18:50;;;;;;;139.20;58.23;;;7.70;99.90;;;;;;5093846;28;20222;-77
2021/04/20 00:21:19;;;;;;;146.17;59.17;;;7.60;99.90;;;;;;5093144;28;20192;-78
2021/04/20 00:23:45;;;;;;;139.30;59.60;;;7.60;99.90;;;;;;5090285;28;20197;-77
2021/04/20 00:26:12;;;;;;;156.60;61.87;;;7.50;99.90;;;;;;5093586;28;20217;-77
2021/04/20 00:28:38;;;;;;;160.63;64.33;;;7.50;99.90;;;;;;5093761;28;20290;-77
2021/04/20 00:31:05;;;;;;;164.00;64.47;;;7.50;99.90;;;;;;5093306;28;20279;-77
2021/04/20 00:33:32;;;;;;;173.30;68.83;;;7.60;99.90;;;;;;5093647;28;20214;-78
2021/04/20 00:35:58;;;;;;;187.07;71.60;;;7.70;99.90;;;;;;5092992;28;20283;-77
2021/04/20 00:38:24;;;;;;;184.53;73.13;;;7.80;99.90;;;;;;5093426;28;20302;-77
2021/04/20 00:40:51;;;;;;;181.03;71.43;;;7.50;99.90;;;;;;5093904;28;20289;-77
2021/04/20 00:43:17;;;;;;;189.57;72.50;;;7.30;99.90;;;;;;5093625;28;20635;-77
2021/04/20 00:45:44;;;;;;;184.27;70.77;;;7.40;99.90;;;;;;5093890;28;20817;-77
2021/04/20 00:48:11;;;;;;;151.03;62.80;;;7.50;99.90;;;;;;5094177;28;20221;-77
2021/04/20 00:50:40;;;;;;;147.53;61.73;;;7.40;99.90;;;;;;5093137;28;20224;-77
2021/04/20 00:53:08;;;;;;;151.27;63.90;;;7.30;99.90;;;;;;5093859;28;20207;-77
2021/04/20 00:55:35;;;;;;;148.57;63.53;;;7.30;99.90;;;;;;5089545;28;20206;-77
2021/04/20 00:58:01;;;;;;;151.93;64.40;;;7.10;99.90;;;;;;5093620;28;20203;-77
2021/04/20 01:00:30;;;;;;;147.73;64.23;;;7.10;99.90;;;;;;5092486;28;20298;-77
2021/04/20 01:02:57;;;;;;;137.17;63.63;;;7.20;99.90;;;;;;5093894;28;20286;-78
2021/04/20 01:05:29;;;;;;;147.07;66.90;;;7.10;99.90;;;;;;5093063;28;20204;-77
2021/04/20 01:07:58;;;;;;;155.63;67.97;;;7.10;99.90;;;;;;5093540;28;20241;-77
2021/04/20 01:10:26;;;;;;;137.73;63.57;;;7.10;99.90;;;;;;5093413;28;20196;-77
2021/04/20 01:12:52;;;;;;;143.20;65.23;;;7.10;99.90;;;;;;5093112;28;20685;-77
2021/04/20 01:15:18;;;;;;;143.17;63.30;;;7.10;99.90;;;;;;5093450;28;20196;-77
2021/04/20 01:17:45;;;;;;;147.73;60.73;;;7.10;99.90;;;;;;5093453;28;20287;-77
2021/04/20 01:20:13;;;;;;;147.23;62.47;;;7.20;99.90;;;;;;5092782;28;20223;-78
2021/04/20 01:22:43;;;;;;;152.00;61.83;;;7.10;99.90;;;;;;5095466;28;20195;-77
2021/04/20 01:25:13;;;;;;;134.50;58.83;;;7.20;99.90;;;;;;5097436;28;20594;-77
2021/04/20 01:27:39;;;;;;;153.30;61.87;;;7.10;99.90;;;;;;5098236;28;20293;-77
2021/04/20 01:30:10;;;;;;;145.60;61.17;;;7.10;99.90;;;;;;5097507;28;20192;-77
2021/04/20 01:32:37;;;;;;;142.83;60.20;;;7.20;99.90;;;;;;5097291;28;20705;-78
2021/04/20 01:35:06;;;;;;;143.20;60.33;;;7.20;99.90;;;;;;5097378;28;20295;-77
2021/04/20 01:37:32;;;;;;;154.37;59.67;;;7.20;99.90;;;;;;5096322;28;20224;-78
2021/04/20 01:39:59;;;;;;;150.73;61.73;;;7.20;99.90;;;;;;5096890;28;20320;-77
2021/04/20 01:42:26;;;;;;;154.83;63.67;;;6.90;99.90;;;;;;5097519;28;20306;-78
2021/04/20 01:44:54;;;;;;;140.23;60.40;;;6.90;99.90;;;;;;5097335;28;20211;-77
2021/04/20 01:47:20;;;;;;;136.63;60.10;;;6.90;99.90;;;;;;5097016;28;20192;-77
2021/04/20 01:49:46;;;;;;;140.67;60.57;;;6.90;99.90;;;;;;5097391;28;20201;-77
2021/04/20 01:52:15;;;;;;;130.03;57.90;;;6.90;99.90;;;;;;5095725;28;20228;-77
2021/04/20 01:54:41;;;;;;;158.43;63.10;;;6.90;99.90;;;;;;5097056;28;20201;-77
2021/04/20 01:57:10;;;;;;;163.13;63.47;;;6.90;99.90;;;;;;5096654;28;20284;-77
2021/04/20 01:59:37;;;;;;;159.43;61.97;;;6.90;99.90;;;;;;5096902;28;20224;-77
2021/04/20 02:02:04;;;;;;;161.63;62.03;;;6.90;99.90;;;;;;5096602;28;20657;-77
2021/04/20 02:04:30;;;;;;;163.20;64.47;;;6.80;99.90;;;;;;5096299;28;20200;-77
2021/04/20 02:06:57;;;;;;;175.00;63.37;;;6.80;99.90;;;;;;5096301;28;20208;-77
2021/04/20 02:09:24;;;;;;;174.13;63.77;;;6.80;99.90;;;;;;5096107;28;20195;-77
2021/04/20 02:11:50;;;;;;;157.83;61.77;;;6.80;99.90;;;;;;5096694;28;20197;-77
2021/04/20 02:14:16;;;;;;;155.90;61.20;;;6.80;99.90;;;;;;5096232;28;20279;-77
2021/04/20 02:16:44;;;;;;;165.50;61.73;;;6.90;99.90;;;;;;5096803;28;20296;-77
2021/04/20 02:19:13;;;;;;;157.67;60.17;;;6.90;99.90;;;;;;5095196;28;20746;-77
2021/04/20 02:21:40;;;;;;;148.53;59.87;;;6.90;99.90;;;;;;5095791;28;20279;-77
2021/04/20 02:24:08;;;;;;;155.67;61.70;;;6.90;99.90;;;;;;5096140;28;20345;-77
2021/04/20 02:26:37;;;;;;;159.10;59.93;;;7.00;99.90;;;;;;5096358;28;20203;-77
2021/04/20 02:29:06;;;;;;;158.27;63.30;;;7.00;99.90;;;;;;5096414;28;20198;-78
2021/04/20 02:31:34;;;;;;;152.07;62.37;;;7.00;99.90;;;;;;5095706;28;20722;-77
2021/04/20 02:34:04;;;;;;;162.00;65.33;;;6.90;99.90;;;;;;5094057;28;20194;-77
2021/04/20 02:36:32;;;;;;;157.80;62.43;;;6.90;99.90;;;;;;5096034;28;20221;-77
2021/04/20 02:38:58;;;;;;;153.87;62.73;;;6.90;99.90;;;;;;5095332;28;20260;-77
2021/04/20 02:41:26;;;;;;;158.50;64.93;;;6.90;99.90;;;;;;5095766;28;20200;-77
2021/04/20 02:43:52;;;;;;;155.13;64.03;;;6.90;99.90;;;;;;5095501;28;20204;-77
2021/04/20 02:46:19;;;;;;;158.47;66.70;;;6.80;99.90;;;;;;5094995;28;20189;-77
2021/04/20 02:48:46;;;;;;;147.47;62.13;;;6.90;99.90;;;;;;5096006;28;20207;-77
2021/04/20 02:51:13;;;;;;;145.57;60.37;;;6.90;99.90;;;;;;5095412;28;20695;-77
2021/04/20 02:53:42;;;;;;;138.00;60.97;;;6.80;99.90;;;;;;5095826;28;20208;-77
2021/04/20 02:56:11;;;;;;;146.70;61.67;;;6.80;99.90;;;;;;5075453;28;20197;-77
2021/04/20 02:58:38;;;;;;;145.10;60.20;;;6.70;99.90;;;;;;5075332;28;20225;-77
2021/04/20 03:03:36;;;;;;;123.87;55.57;;;6.80;99.90;;;;;;5113988;22;20243;-78
2021/04/20 03:06:03;;;;;;;130.07;56.37;;;6.90;99.90;;;;;;5110852;28;20636;-77
2021/04/20 03:08:31;;;;;;;128.03;56.40;;;7.00;99.90;;;;;;5115078;28;20290;-76
2021/04/20 03:11:03;;;;;;;130.50;56.97;;;7.00;99.90;;;;;;5114886;28;20213;-77
2021/04/20 03:13:30;;;;;;;127.20;54.83;;;6.80;99.90;;;;;;5114988;28;20283;-76
2021/04/20 03:15:56;;;;;;;128.13;56.60;;;6.90;99.90;;;;;;5114503;28;20215;-77
2021/04/20 03:18:23;;;;;;;147.20;58.00;;;6.90;99.90;;;;;;5114459;28;20206;-76
2021/04/20 03:20:49;;;;;;;137.97;60.13;;;6.90;99.90;;;;;;5114572;28;20254;-76
2021/04/20 03:23:17;;;;;;;149.50;62.73;;;6.80;99.90;;;;;;5114678;28;20702;-77
2021/04/20 03:25:44;;;;;;;147.57;63.93;;;6.60;99.90;;;;;;5114727;28;20205;-76
2021/04/20 03:28:11;;;;;;;147.90;63.63;;;6.60;99.90;;;;;;5114759;28;20191;-77
2021/04/20 03:30:37;;;;;;;156.37;64.20;;;6.50;99.90;;;;;;5114974;28;20634;-76
2021/04/20 03:33:09;;;;;;;148.33;61.27;;;6.60;99.90;;;;;;5114271;28;20202;-75
2021/04/20 03:35:46;;;;;;;144.93;61.77;;;6.60;99.90;;;;;;5114311;28;20287;-76
2021/04/20 03:38:21;;;;;;;154.93;61.70;;;6.80;99.90;;;;;;5114844;28;20194;-76
2021/04/20 03:40:52;;;;;;;171.40;64.30;;;6.80;99.90;;;;;;5114415;28;20559;-77
2021/04/20 03:43:25;;;;;;;157.57;63.13;;;6.80;99.90;;;;;;5114166;28;20194;-78
2021/04/20 03:45:55;;;;;;;162.20;66.47;;;6.90;99.90;;;;;;5114564;28;20272;-77
2021/04/20 03:48:27;;;;;;;156.27;62.23;;;6.90;99.90;;;;;;5113798;28;20199;-77
2021/04/20 03:50:59;;;;;;;172.53;66.50;;;6.90;99.90;;;;;;5114293;28;20199;-77
2021/04/20 03:53:27;;;;;;;176.20;67.07;;;6.90;99.90;;;;;;5114271;28;20241;-76
2021/04/20 03:55:56;;;;;;;182.93;65.73;;;7.00;99.90;;;;;;5113855;28;20222;-76
2021/04/20 03:58:24;;;;;;;172.30;66.43;;;7.00;99.90;;;;;;5114002;28;20235;-79
2021/04/20 04:00:52;;;;;;;173.77;65.80;;;6.80;99.90;;;;;;5114065;28;20306;-76
2021/04/20 04:03:24;;;;;;;172.70;67.37;;;6.80;99.90;;;;;;5113856;28;20681;-76
2021/04/20 04:05:52;;;;;;;164.27;63.30;;;6.80;99.90;;;;;;5114450;28;20207;-77
2021/04/20 04:08:19;;;;;;;169.57;64.77;;;6.70;99.90;;;;;;5113435;28;20279;-76
2021/04/20 04:10:49;;;;;;;184.17;66.93;;;6.70;99.90;;;;;;5114231;28;20314;-78
2021/04/20 04:13:17;;;;;;;178.80;65.67;;;6.70;99.90;;;;;;5113795;28;20286;-77
2021/04/20 04:15:44;;;;;;;177.93;62.67;;;6.70;99.90;;;;;;5113598;28;20204;-76
2021/04/20 04:18:15;;;;;;;195.93;65.23;;;6.70;99.90;;;;;;5114125;28;20285;-78
2021/04/20 04:20:42;;;;;;;203.20;67.20;;;6.70;99.90;;;;;;5113610;28;20326;-77
2021/04/20 04:23:14;;;;;;;219.20;71.10;;;6.80;99.90;;;;;;5113515;28;20223;-76
2021/04/20 04:25:49;;;;;;;205.60;67.63;;;6.80;99.90;;;;;;5113971;28;20349;-78
2021/04/20 04:28:19;;;;;;;188.30;67.97;;;6.80;99.90;;;;;;5114030;28;20274;-76
2021/04/20 04:30:47;;;;;;;179.23;66.73;;;6.40;99.90;;;;;;5113051;28;20212;-75
2021/04/20 04:33:13;;;;;;;164.03;62.03;;;6.10;99.90;;;;;;5113564;28;20200;-77
2021/04/20 04:35:42;;;;;;;165.43;63.43;;;6.20;99.90;;;;;;5112500;28;20292;-78
2021/04/20 04:38:10;;;;;;;149.97;58.30;;;6.20;99.90;;;;;;5113527;28;20200;-76
2021/04/20 04:40:36;;;;;;;161.60;60.10;;;6.20;99.90;;;;;;5119120;27;20253;-76
2021/04/20 04:43:03;;;;;;;148.10;59.47;;;6.20;99.90;;;;;;5122417;27;20206;-78
2021/04/20 04:45:31;;;;;;;165.37;61.73;;;6.20;99.90;;;;;;5095959;28;20277;-77
2021/04/20 04:47:59;;;;;;;192.40;64.33;;;6.20;99.90;;;;;;5110965;27;20707;-77
2021/04/20 04:50:26;;;;;;;241.70;74.13;;;6.40;99.90;;;;;;5104736;28;20195;-77
2021/04/20 04:52:53;;;;;;;222.70;70.87;;;6.60;99.90;;;;;;5111928;27;20197;-80
2021/04/20 04:55:20;;;;;;;231.57;72.37;;;6.50;99.90;;;;;;5106540;27;20657;-77
2021/04/20 04:57:49;;;;;;;240.70;74.07;;;6.40;99.90;;;;;;5102836;27;20200;-78
2021/04/20 05:00:17;;;;;;;202.87;71.80;;;6.40;99.90;;;;;;5100823;28;20220;-77
2021/04/20 05:02:45;;;;;;;197.67;67.63;;;6.50;99.90;;;;;;5113048;28;20727;-77
2021/04/20 05:05:14;;;;;;;189.77;67.33;;;6.60;99.90;;;;;;5112926;28;20206;-77
2021/04/20 05:07:41;;;;;;;181.27;67.07;;;6.60;99.90;;;;;;5113545;28;20285;-77
2021/04/20 05:10:10;;;;;;;172.67;62.23;;;6.70;99.90;;;;;;5112907;28;20202;-76
2021/04/20 05:12:37;;;;;;;166.87;62.23;;;6.80;99.90;;;;;;5112059;28;20681;-77
2021/04/20 05:15:09;;;;;;;175.17;63.77;;;6.80;99.90;;;;;;5112465;28;20671;-78
2021/04/20 05:17:37;;;;;;;177.50;63.93;;;7.10;99.90;;;;;;5111990;28;20303;-77
2021/04/20 05:20:06;;;;;;;184.57;67.17;;;7.30;99.90;;;;;;5112242;28;20216;-78
2021/04/20 05:22:34;;;;;;;178.30;67.43;;;7.40;99.90;;;;;;5108490;28;20204;-79
2021/04/20 05:25:01;;;;;;;171.90;67.23;;;7.60;99.90;;;;;;5098761;28;20195;-78
2021/04/20 05:27:27;;;;;;;164.00;64.83;;;7.80;99.90;;;;;;5112148;28;20282;-78
2021/04/20 05:29:54;;;;;;;148.20;63.90;;;8.10;99.90;;;;;;5112277;28;20195;-78
2021/04/20 05:32:20;;;;;;;135.27;60.10;;;8.30;99.90;;;;;;5111751;28;20661;-78
2021/04/20 05:34:47;;;;;;;126.67;58.03;;;8.40;99.90;;;;;;5104027;28;20199;-78
2021/04/20 05:37:14;;;;;;;117.63;54.70;;;8.50;99.90;;;;;;5106394;28;20278;-78
2021/04/20 05:39:41;;;;;;;109.40;53.57;;;8.50;99.90;;;;;;5111214;28;20701;-78
2021/04/20 05:42:07;;;;;;;110.10;54.73;;;8.50;99.90;;;;;;5112433;28;20200;-80
2021/04/20 05:44:34;;;;;;;109.80;52.63;;;8.50;99.90;;;;;;5111813;28;20274;-76
2021/04/20 05:47:00;;;;;;;102.90;51.67;;;8.50;99.90;;;;;;5111610;28;20677;-78
2021/04/20 05:49:28;;;;;;;104.67;52.60;;;8.60;99.90;;;;;;5112112;28;20283;-78
2021/04/20 05:51:54;;;;;;;97.53;50.10;;;8.70;99.90;;;;;;5112137;28;20726;-78
2021/04/20 05:54:24;;;;;;;95.53;50.90;;;8.90;99.90;;;;;;5113573;28;20197;-82
2021/04/20 05:56:50;;;;;;;96.50;49.27;;;9.00;99.90;;;;;;5112141;28;20283;-78
2021/04/20 05:59:18;;;;;;;90.97;50.03;;;9.10;99.90;;;;;;5112639;28;20301;-79
2021/04/20 06:01:46;;;;;;;96.37;51.13;;;9.20;99.90;;;;;;5112324;28;20198;-77
2021/04/20 06:04:14;;;;;;;93.60;48.37;;;9.30;99.90;;;;;;5112857;28;20216;-81
2021/04/20 06:06:42;;;;;;;88.40;48.03;;;9.40;99.90;;;;;;5112648;28;20251;-78
2021/04/20 06:09:10;;;;;;;83.33;47.37;;;9.50;99.90;;;;;;5115930;28;20295;-78
2021/04/20 06:11:38;;;;;;;81.57;46.63;;;9.70;99.90;;;;;;5114268;28;20295;-78
2021/04/20 06:14:07;;;;;;;85.93;47.20;;;9.90;99.90;;;;;;5108149;28;20669;-78
2021/04/20 06:16:35;;;;;;;84.93;48.53;;;9.80;99.90;;;;;;5114397;28;20636;-80
2021/04/20 06:19:12;;;;;;;87.73;47.60;;;9.80;99.90;;;;;;5114009;28;20579;-78
2021/04/20 06:21:39;;;;;;;80.33;46.60;;;9.60;99.90;;;;;;5115708;28;20196;-78
2021/04/20 06:24:08;;;;;;;77.43;47.27;;;9.60;99.90;;;;;;5116096;28;20193;-78
2021/04/20 06:26:36;;;;;;;81.83;47.27;;;9.70;99.90;;;;;;5115867;28;20772;-78
2021/04/20 06:29:03;;;;;;;75.37;44.50;;;9.90;99.90;;;;;;5116613;28;20202;-79
2021/04/20 06:31:32;;;;;;;73.80;42.83;;;10.00;99.90;;;;;;5115906;28;20656;-80
2021/04/20 06:34:01;;;;;;;76.30;44.10;;;10.20;99.90;;;;;;5115831;28;20292;-79
2021/04/20 06:36:27;;;;;;;65.20;40.60;;;10.30;99.90;;;;;;5115217;28;20260;-80
2021/04/20 06:38:54;;;;;;;64.23;39.47;;;10.30;99.90;;;;;;5114973;28;20193;-78
2021/04/20 06:41:25;;;;;;;68.13;42.17;;;10.30;99.90;;;;;;5115024;28;20565;-79
2021/04/20 06:43:55;;;;;;;71.00;39.77;;;10.10;99.90;;;;;;5115031;28;20288;-78
2021/04/20 06:46:30;;;;;;;79.73;44.53;;;10.20;99.90;;;;;;5118312;28;20475;-78
2021/04/20 06:49:01;;;;;;;70.10;42.10;;;10.20;99.90;;;;;;5113682;28;20203;-78
2021/04/20 06:51:34;;;;;;;86.70;47.40;;;10.30;99.90;;;;;;5114951;28;20203;-78
2021/04/20 06:54:09;;;;;;;92.13;47.23;;;10.60;99.90;;;;;;5114636;28;20598;-79
2021/04/20 06:56:40;;;;;;;91.70;51.27;;;10.70;99.90;;;;;;5114512;28;20197;-78
2021/04/20 06:59:15;;;;;;;95.47;53.23;;;10.80;99.90;;;;;;5114897;28;20257;-79
2021/04/20 07:01:45;;;;;;;90.47;49.57;;;11.00;99.90;;;;;;5115160;28;20200;-79
2021/04/20 07:04:17;;;;;;;89.57;51.17;;;11.00;99.90;;;;;;5109448;28;20201;-78
2021/04/20 07:06:56;;;;;;;88.30;51.10;;;11.10;99.90;;;;;;5107571;28;20292;-77
2021/04/20 07:09:26;;;;;;;76.47;45.70;;;11.10;99.90;;;;;;5115077;28;20285;-79
2021/04/20 07:11:55;;;;;;;76.07;45.23;;;11.10;99.90;;;;;;5115014;28;20205;-79
2021/04/20 07:14:30;;;;;;;75.07;41.73;;;11.30;99.90;;;;;;5115234;28;20568;-79
2021/04/20 07:17:06;;;;;;;67.70;40.93;;;11.50;99.90;;;;;;5091805;28;20254;-77
2021/04/20 07:20:20;;;;;;;76.43;44.27;;;11.20;99.90;;;;;;5112331;28;20299;-78
2021/04/20 07:23:04;;;;;;;69.03;42.00;;;11.40;99.90;;;;;;5010910;28;20620;-77
2021/04/20 07:25:49;;;;;;;73.87;42.90;;;11.50;99.90;;;;;;5029251;28;20188;-79
2021/04/20 07:28:25;;;;;;;72.87;45.60;;;11.70;99.90;;;;;;5096820;28;20211;-77
2021/04/20 07:31:03;;;;;;;83.17;48.80;;;11.90;99.90;;;;;;5114783;28;20227;-77
2021/04/20 07:33:41;;;;;;;93.10;55.27;;;12.00;99.90;;;;;;5114764;28;20253;-77
2021/04/20 07:36:16;;;;;;;84.33;48.20;;;12.10;99.90;;;;;;5112402;28;20197;-79
2021/04/20 07:38:51;;;;;;;84.00;48.23;;;12.10;99.90;;;;;;5109104;28;20298;-76
2021/04/20 07:41:23;;;;;;;86.80;47.97;;;12.20;99.90;;;;;;5111734;28;20225;-77
2021/04/20 07:44:08;;;;;;;79.50;43.53;;;12.40;99.90;;;;;;5104152;28;20193;-79
2021/04/20 07:46:39;;;;;;;74.63;42.53;;;12.50;99.90;;;;;;5112216;28;20201;-77
2021/04/20 07:49:16;;;;;;;75.57;44.30;;;12.70;99.90;;;;;;5113031;28;20280;-78
2021/04/20 07:51:58;;;;;;;82.30;43.43;;;12.70;99.90;;;;;;5111582;28;20280;-78
2021/04/20 07:54:41;;;;;;;74.07;43.93;;;12.80;99.90;;;;;;5110821;28;20193;-77
2021/04/20 07:57:16;;;;;;;79.87;43.73;;;12.90;99.90;;;;;;5113404;28;20201;-78
2021/04/20 08:00:06;;;;;;;81.67;47.27;;;12.90;99.90;;;;;;5109703;28;20304;-78
2021/04/20 08:02:44;;;;;;;83.83;47.70;;;13.20;99.90;;;;;;5112164;28;20240;-79
2021/04/20 08:05:19;;;;;;;90.90;49.47;;;13.20;99.90;;;;;;5111572;28;20209;-77
2021/04/20 08:07:54;;;;;;;79.13;48.03;;;13.20;99.90;;;;;;5111772;28;20186;-77
2021/04/20 08:10:25;;;;;;;90.53;51.27;;;13.40;99.90;;;;;;5111002;28;20813;-78
2021/04/20 08:12:56;;;;;;;83.17;48.57;;;13.40;99.90;;;;;;5112528;28;20204;-77
2021/04/20 08:15:31;;;;;;;83.40;49.83;;;13.60;99.90;;;;;;5112935;28;20194;-78
2021/04/20 08:18:06;;;;;;;79.67;47.30;;;13.80;99.90;;;;;;5112662;28;20192;-77
2021/04/20 08:20:36;;;;;;;77.27;44.20;;;14.10;99.90;;;;;;5104768;28;20225;-78
2021/04/20 08:23:05;;;;;;;71.73;46.40;;;14.20;99.90;;;;;;5106847;28;20281;-78
2021/04/20 08:25:35;;;;;;;72.27;44.43;;;14.80;99.90;;;;;;5112857;28;20198;-76
2021/04/20 08:28:09;;;;;;;73.03;46.30;;;16.20;99.90;;;;;;5111738;28;20320;-76
2021/04/20 08:30:41;;;;;;;72.43;46.50;;;17.70;99.90;;;;;;5110604;28;20626;-76
2021/04/20 08:33:12;;;;;;;67.93;46.67;;;19.10;99.90;;;;;;5109257;28;20314;-76
2021/04/20 08:35:42;;;;;;;66.37;45.20;;;20.60;99.90;;;;;;5106067;28;20239;-76
2021/04/20 08:38:32;;;;;;;70.43;46.57;;;21.60;99.90;;;;;;5111934;28;20202;-76
2021/04/20 08:41:08;;;;;;;66.87;44.43;;;21.70;99.90;;;;;;5110629;28;20301;-76
2021/04/20 08:43:47;;;;;;;66.47;43.57;;;21.40;99.90;;;;;;5105498;28;20290;-75
2021/04/20 08:46:27;;;;;;;65.83;43.90;;;21.50;99.90;;;;;;5107992;28;20194;-78
2021/04/20 08:49:01;;;;;;;60.07;42.73;;;22.50;99.90;;;;;;5103182;28;20643;-75
2021/04/20 08:51:36;;;;;;;70.23;47.43;;;23.70;99.90;;;;;;5101788;28;20197;-78
2021/04/20 08:54:16;;;;;;;62.20;46.97;;;24.20;99.90;;;;;;5112229;28;20221;-77
2021/04/20 08:56:49;;;;;;;65.63;44.47;;;23.80;99.90;;;;;;5111535;28;20198;-76
2021/04/20 08:59:37;;;;;;;68.40;44.73;;;23.70;99.90;;;;;;5109597;28;20690;-77
2021/04/20 09:02:22;;;;;;;59.33;42.47;;;24.20;99.90;;;;;;5110723;28;20290;-75
2021/04/20 09:05:23;;;;;;;63.78;44.00;;;25.10;99.90;;;;;;5104541;28;20209;-78
2021/04/20 09:07:57;;;;;;;61.55;43.35;;;25.40;99.90;;;;;;5102597;28;20206;-75
2021/04/20 09:10:31;;;;;;;66.30;43.25;;;26.30;99.90;;;;;;5107347;28;20277;-77
2021/04/20 09:13:03;;;;;;;58.22;39.83;;;26.30;99.90;;;;;;5107924;28;20635;-77
2021/04/20 09:15:35;;;;;;;61.40;42.38;;;26.90;99.90;;;;;;5107203;28;20190;-77
2021/04/20 09:18:06;;;;;;;55.90;39.88;;;26.60;99.90;;;;;;5111748;28;20242;-75
2021/04/20 09:20:38;;;;;;;61.38;40.78;;;26.20;99.90;;;;;;5108455;28;20261;-77
2021/04/20 09:23:20;;;;;;;59.45;42.97;;;26.30;99.90;;;;;;5100454;28;20194;-77
2021/04/20 09:25:53;;;;;;;64.22;42.60;;;26.30;99.90;;;;;;5105956;28;20210;-77
2021/04/20 09:28:24;;;;;;;56.60;41.40;;;26.10;99.90;;;;;;5110072;28;20316;-76
2021/04/20 09:30:54;;;;;;;62.42;40.00;;;25.30;99.90;;;;;;5108549;28;20200;-76
2021/04/20 09:33:26;;;;;;;54.22;37.78;;;24.90;99.90;;;;;;5106964;28;20194;-76
2021/04/20 09:35:53;;;;;;;53.15;37.47;;;25.10;99.90;;;;;;5107377;28;20205;-78
2021/04/20 09:38:23;;;;;;;51.38;37.63;;;25.50;99.90;;;;;;5112024;28;20286;-78
2021/04/20 09:40:52;;;;;;;54.83;37.25;;;25.80;99.90;;;;;;5110645;28;20214;-76
2021/04/20 09:43:29;;;;;;;50.13;36.42;;;25.50;99.90;;;;;;5110264;28;20284;-76
2021/04/20 09:46:02;;;;;;;51.90;37.42;;;26.00;99.90;;;;;;5112260;28;20271;-76
2021/04/20 09:48:38;;;;;;;48.72;36.05;;;25.90;99.90;;;;;;5111159;28;20714;-77
2021/04/20 09:51:11;;;;;;;52.10;36.55;;;24.70;99.90;;;;;;5113209;28;20346;-75
2021/04/20 09:53:57;;;;;;;51.50;35.92;;;24.40;99.90;;;;;;5114634;28;20229;-75
2021/04/20 09:56:30;;;;;;;47.83;34.33;;;24.50;99.90;;;;;;5112309;28;20210;-76
2021/04/20 09:58:56;;;;;;;46.83;33.33;;;24.80;99.90;;;;;;5115677;28;20225;-78
2021/04/20 10:01:41;;;;;;;49.47;33.93;;;24.50;99.90;;;;;;5113346;28;20194;-76
2021/04/20 10:04:09;;;;;;;47.33;33.88;;;24.40;99.90;;;;;;5114137;28;20288;-76
2021/04/20 10:06:52;;;;;;;49.65;33.30;;;25.10;99.90;;;;;;5110217;28;20288;-78
2021/04/20 10:09:33;;;;;;;48.75;33.47;;;25.10;99.90;;;;;;5110073;28;20201;-77
2021/04/20 10:12:11;;;;;;;48.42;33.90;;;24.50;99.90;;;;;;5115104;28;20194;-79
2021/04/20 10:14:48;;;;;;;43.17;31.70;;;24.90;99.90;;;;;;5116280;28;20738;-80
2021/04/20 10:17:17;;;;;;;46.50;31.87;;;24.30;99.90;;;;;;5112948;28;20224;-80
2021/04/20 10:19:51;;;;;;;46.55;33.83;;;24.60;99.90;;;;;;5115370;28;20739;-78
2021/04/20 10:22:26;;;;;;;44.85;32.70;;;25.10;99.90;;;;;;5115484;28;20203;-80
2021/04/20 10:25:07;;;;;;;46.40;31.20;;;25.10;99.90;;;;;;5115911;28;20202;-76
2021/04/20 10:27:36;;;;;;;45.42;32.65;;;25.40;99.90;;;;;;5115021;28;20730;-76
2021/04/20 10:30:07;;;;;;;48.15;34.33;;;24.50;99.90;;;;;;5113149;28;20230;-80
2021/04/20 10:32:36;;;;;;;48.67;33.00;;;23.90;99.90;;;;;;5115205;28;20566;-78
2021/04/20 10:35:06;;;;;;;44.65;33.95;;;24.70;99.90;;;;;;5103479;28;20198;-78
2021/04/20 10:37:36;;;;;;;48.92;35.33;;;25.00;99.90;;;;;;5113030;28;20277;-79
2021/04/20 10:40:07;;;;;;;48.80;36.30;;;24.40;99.90;;;;;;5114373;28;20310;-78
2021/04/20 10:42:36;;;;;;;47.83;34.08;;;24.30;99.90;;;;;;5111522;28;20254;-78
2021/04/20 10:45:05;;;;;;;50.77;36.77;;;23.70;99.90;;;;;;5114715;28;20197;-77
2021/04/20 10:47:32;;;;;;;52.00;35.90;;;23.00;99.90;;;;;;5114657;28;20208;-78
2021/04/20 10:49:59;;;;;;;44.03;33.00;;;22.90;99.90;;;;;;5114768;28;20194;-76
2021/04/20 10:52:31;;;;;;;47.87;35.07;;;23.40;99.90;;;;;;5110151;28;20206;-80
2021/04/20 10:55:01;;;;;;;50.47;34.80;;;24.10;99.90;;;;;;5107469;28;20245;-77
2021/04/20 10:57:30;;;;;;;48.63;33.17;;;23.90;99.90;;;;;;5108791;28;20658;-80
2021/04/20 10:59:58;;;;;;;46.27;33.17;;;23.60;99.90;;;;;;5109395;28;20214;-79
2021/04/20 11:02:32;;;;;;;50.90;35.13;;;22.80;99.90;;;;;;5114382;28;20665;-77
2021/04/20 11:05:00;;;;;;;46.10;32.83;;;23.40;99.90;;;;;;5111365;28;20198;-78
2021/04/20 11:07:30;;;;;;;43.58;32.15;;;23.70;99.90;;;;;;5112335;28;20206;-76
2021/04/20 11:09:58;;;;;;;45.60;32.67;;;24.90;99.90;;;;;;5105272;28;20660;-75
2021/04/20 11:12:26;;;;;;;47.97;34.90;;;24.40;99.90;;;;;;5110710;28;20339;-78
2021/04/20 11:14:55;;;;;;;48.17;34.03;;;23.90;99.90;;;;;;5111268;28;20214;-77
2021/04/20 11:17:37;;;;;;;44.53;31.27;;;23.90;99.90;;;;;;5111050;28;20678;-78
2021/04/20 11:20:16;;;;;;;43.13;31.27;;;24.30;99.90;;;;;;5105353;28;20305;-76
2021/04/20 11:22:51;;;;;;;46.92;31.77;;;24.00;99.90;;;;;;5101808;28;20190;-77
2021/04/20 11:25:25;;;;;;;46.17;32.10;;;24.30;99.90;;;;;;5110915;28;20662;-76
2021/04/20 11:27:57;;;;;;;44.28;31.08;;;24.60;99.90;;;;;;5103900;28;20211;-79
2021/04/20 11:30:31;;;;;;;40.70;30.27;;;24.40;99.90;;;;;;5112281;28;20194;-76
2021/04/20 11:33:00;;;;;;;45.78;30.42;;;24.00;99.90;;;;;;5107183;28;20217;-76
2021/04/20 11:35:28;;;;;;;43.17;31.33;;;24.30;99.90;;;;;;5107947;28;20250;-76
2021/04/20 11:38:01;;;;;;;42.05;30.58;;;24.50;99.90;;;;;;5106937;28;20691;-76
2021/04/20 11:40:31;;;;;;;44.60;29.77;;;24.90;99.90;;;;;;5110373;28;20567;-76
2021/04/20 11:43:01;;;;;;;38.60;30.52;;;24.90;99.90;;;;;;5112180;28;20273;-77
2021/04/20 11:45:29;;;;;;;45.58;30.20;;;24.10;99.90;;;;;;5106832;28;20182;-77
2021/04/20 11:48:03;;;;;;;39.05;27.73;;;22.90;99.90;;;;;;5108696;28;20190;-79
2021/04/20 11:50:33;;;;;;;40.70;29.58;;;22.10;99.90;;;;;;5098624;28;20209;-79
2021/04/20 11:53:02;;;;;;;38.22;29.88;;;21.90;99.90;;;;;;5111444;28;20627;-77
2021/04/20 11:55:31;;;;;;;44.17;30.35;;;21.80;99.90;;;;;;5104208;28;20281;-78
2021/04/20 11:58:06;;;;;;;42.00;29.35;;;21.90;99.90;;;;;;5104094;28;20629;-78
2021/04/20 12:00:36;;;;;;;40.17;28.63;;;22.40;99.90;;;;;;5104150;28;20285;-77
2021/04/20 12:03:12;;;;;;;44.90;30.10;;;22.80;99.90;;;;;;5111500;28;20282;-79
2021/04/20 12:05:39;;;;;;;39.05;29.02;;;22.10;99.90;;;;;;5113055;28;20226;-78
2021/04/20 12:08:09;;;;;;;44.17;30.10;;;22.20;99.90;;;;;;5107469;28;20201;-76
2021/04/20 12:10:37;;;;;;;42.72;29.23;;;22.20;99.90;;;;;;5109489;28;20198;-78
2021/04/20 12:13:04;;;;;;;46.10;29.40;;;22.10;99.90;;;;;;5101753;28;20218;-77
2021/04/20 12:15:32;;;;;;;46.93;28.97;;;21.40;99.90;;;;;;5108027;28;20199;-78
2021/04/20 12:17:59;;;;;;;44.50;29.50;;;21.00;99.90;;;;;;5103725;28;20221;-77
2021/04/20 12:20:27;;;;;;;42.37;28.80;;;20.50;99.90;;;;;;5100993;28;20218;-78
2021/04/20 12:22:56;;;;;;;38.70;30.03;;;20.10;99.90;;;;;;5113034;28;20210;-79
2021/04/20 12:25:23;;;;;;;43.00;28.70;;;20.40;99.90;;;;;;5110042;28;20281;-80
2021/04/20 12:27:52;;;;;;;46.40;29.63;;;21.10;99.90;;;;;;5105009;28;20277;-77
2021/04/20 12:30:21;;;;;;;41.53;30.30;;;22.10;99.90;;;;;;5105132;28;20202;-78
2021/04/20 12:32:47;;;;;;;37.97;29.10;;;22.70;99.90;;;;;;5113485;28;20285;-77
2021/04/20 12:35:16;;;;;;;39.83;28.58;;;23.10;99.90;;;;;;5111588;28;20646;-77
2021/04/20 12:37:44;;;;;;;41.60;30.42;;;22.80;99.90;;;;;;5110141;28;20190;-78
2021/04/20 12:40:12;;;;;;;38.60;29.15;;;22.80;99.90;;;;;;5101156;28;20248;-76
2021/04/20 12:42:42;;;;;;;42.45;29.95;;;22.20;99.90;;;;;;5112472;28;20202;-78
2021/04/20 12:45:12;;;;;;;36.97;28.92;;;22.50;99.90;;;;;;5111591;28;20194;-76
2021/04/20 12:47:40;;;;;;;36.15;27.55;;;22.50;99.90;;;;;;5107865;28;20241;-79